Time;durP1;ratioP1;P1;durP2;ratioP2;P2;SDS_P1;SDS_P2;PMS_P1;PMS_P2;Temp;Humidity;BMP_temperature;BMP_pressure;BME280_temperature;BME280_humidity;BME280_pressure;Samples;Min_cycle;Max_cycle;Signal;HPM_P1;HPM_P2
2022/11/23 00:01:43;;;;;;;9.27;5.47;;;;;;;3.17;100.00;97500.94;4983767;28;20173;-81
2022/11/23 00:04:28;;;;;;;8.07;5.05;;;;;;;2.98;100.00;97510.66;4969798;28;20124;-81
2022/11/23 00:07:13;;;;;;;8.02;4.65;;;;;;;3.00;100.00;97512.28;4976383;28;20153;-82
2022/11/23 00:09:58;;;;;;;7.13;4.60;;;;;;;3.01;100.00;97502.72;5003283;28;20042;-82
2022/11/23 00:12:43;;;;;;;9.23;5.85;;;;;;;3.01;100.00;97511.34;4977685;28;20039;-82
2022/11/23 00:15:27;;;;;;;6.72;4.32;;;;;;;2.91;100.00;97512.78;4970195;28;20066;-82
2022/11/23 00:18:14;;;;;;;7.82;4.70;;;;;;;2.95;100.00;97509.91;4979283;28;20136;-81
2022/11/23 00:20:58;;;;;;;7.28;4.35;;;;;;;3.02;100.00;97504.41;4993414;28;20049;-82
2022/11/23 00:23:44;;;;;;;7.45;4.18;;;;;;;2.95;100.00;97499.56;4975720;28;20087;-82
2022/11/23 00:26:34;;;;;;;7.20;4.60;;;;;;;3.10;100.00;97509.13;4992304;28;20038;-81
2022/11/23 00:29:20;;;;;;;7.57;4.82;;;;;;;3.02;100.00;97500.06;4972337;28;20034;-82
2022/11/23 00:32:04;;;;;;;8.13;4.90;;;;;;;2.98;100.00;97493.41;4974941;28;20042;-82
2022/11/23 00:34:49;;;;;;;10.63;5.20;;;;;;;3.19;100.00;97500.84;4990737;28;20515;-82
2022/11/23 00:37:42;;;;;;;7.40;4.63;;;;;;;3.24;100.00;97498.81;4969996;28;20074;-82
2022/11/23 00:40:28;;;;;;;10.35;6.60;;;;;;;3.20;100.00;97497.31;5007313;28;20156;-82
2022/11/23 00:43:13;;;;;;;8.68;5.53;;;;;;;3.18;100.00;97494.00;4981214;28;20034;-82
2022/11/23 00:46:13;;;;;;;10.05;6.20;;;;;;;3.14;100.00;97500.25;4979942;28;20482;-81
2022/11/23 00:49:00;;;;;;;10.45;6.22;;;;;;;2.98;100.00;97484.78;4992191;28;20042;-83
2022/11/23 00:51:46;;;;;;;10.07;6.85;;;;;;;2.79;100.00;97486.69;4969090;28;20034;-81
2022/11/23 00:54:30;;;;;;;9.93;5.50;;;;;;;2.93;100.00;97483.31;4974910;28;20042;-82
2022/11/23 00:57:15;;;;;;;14.68;8.55;;;;;;;2.70;100.00;97490.63;4977272;28;20043;-82
2022/11/23 01:00:03;;;;;;;14.25;8.05;;;;;;;2.75;100.00;97497.28;5008503;23;20081;-80
2022/11/23 01:02:48;;;;;;;14.20;7.90;;;;;;;2.85;100.00;97489.84;4988111;28;20045;-81
2022/11/23 01:05:36;;;;;;;18.15;10.50;;;;;;;2.65;100.00;97479.72;4997843;28;20073;-81
2022/11/23 01:08:20;;;;;;;14.70;9.35;;;;;;;2.61;100.00;97480.81;4978000;28;20506;-81
2022/11/23 01:11:09;;;;;;;15.10;8.88;;;;;;;2.57;100.00;97468.97;4975897;28;20046;-81
2022/11/23 01:13:54;;;;;;;16.00;9.25;;;;;;;2.44;100.00;97476.59;4973120;28;20398;-82
2022/11/23 01:16:39;;;;;;;13.18;8.27;;;;;;;2.56;100.00;97470.72;4971997;28;20498;-82
2022/11/23 01:19:24;;;;;;;13.10;8.75;;;;;;;2.52;100.00;97464.06;4973662;28;20045;-81
2022/11/23 01:22:12;;;;;;;14.52;8.07;;;;;;;2.60;100.00;97461.03;4986130;28;20445;-83
2022/11/23 01:25:07;;;;;;;14.48;9.48;;;;;;;2.58;100.00;97462.88;4971749;28;21130;-83
2022/11/23 01:27:57;;;;;;;14.77;9.13;;;;;;;2.74;100.00;97455.09;4988310;28;20433;-84
2022/11/23 01:30:42;;;;;;;14.20;9.27;;;;;;;2.63;100.00;97457.47;4997451;28;20066;-81
2022/11/23 01:33:27;;;;;;;14.48;8.77;;;;;;;2.52;100.00;97451.13;4986221;28;20053;-82
2022/11/23 01:36:23;;;;;;;15.75;9.48;;;;;;;2.51;100.00;97449.47;4975890;28;20042;-83
2022/11/23 01:39:10;;;;;;;15.60;9.07;;;;;;;2.51;100.00;97458.97;4973761;28;20153;-82
2022/11/23 01:41:55;;;;;;;15.18;9.48;;;;;;;2.59;100.00;97457.59;4978916;28;20490;-82
2022/11/23 01:44:45;;;;;;;14.77;9.18;;;;;;;2.52;100.00;97465.81;4963256;28;20106;-81
2022/11/23 01:47:30;;;;;;;18.58;11.02;;;;;;;2.30;100.00;97449.75;4927972;28;20105;-81
2022/11/23 01:50:15;;;;;;;16.60;9.90;;;;;;;2.29;100.00;97450.66;4953400;28;20065;-81
2022/11/23 01:53:01;;;;;;;15.30;10.20;;;;;;;2.28;100.00;97445.59;4942078;28;20043;-83
2022/11/23 01:55:47;;;;;;;17.33;10.48;;;;;;;2.17;100.00;97447.00;4953881;28;20070;-83
2022/11/23 01:58:39;;;;;;;16.38;10.40;;;;;;;2.14;100.00;97446.38;4967250;28;20051;-81
2022/11/23 02:01:23;;;;;;;16.73;10.13;;;;;;;2.17;100.00;97453.94;4949994;28;20137;-81
2022/11/23 02:04:16;;;;;;;18.60;10.95;;;;;;;2.25;100.00;97444.03;4966728;28;20042;-83
2022/11/23 02:07:03;;;;;;;16.08;9.93;;;;;;;2.10;100.00;97445.69;4950225;28;20134;-84
2022/11/23 02:09:51;;;;;;;20.38;11.15;;;;;;;2.16;100.00;97439.34;4966390;28;20066;-80
2022/11/23 02:12:37;;;;;;;18.38;11.45;;;;;;;2.30;100.00;97447.16;4941062;28;20047;-82
2022/11/23 02:15:23;;;;;;;16.90;10.30;;;;;;;2.46;100.00;97449.72;4977534;28;20043;-81
2022/11/23 02:18:19;;;;;;;14.25;9.02;;;;;;;2.46;100.00;97447.13;4978291;28;20035;-81
2022/11/23 02:21:06;;;;;;;17.98;9.95;;;;;;;2.59;100.00;97449.84;4949125;28;20054;-82
2022/11/23 02:24:34;;;;;;;17.23;10.73;;;;;;;2.49;100.00;97448.72;4956662;28;20143;-81
2022/11/23 02:27:21;;;;;;;14.60;9.35;;;;;;;2.62;100.00;97453.19;4951913;28;20130;-82
2022/11/23 02:30:08;;;;;;;14.90;9.23;;;;;;;2.58;100.00;97449.94;4952955;28;20113;-82
2022/11/23 02:32:52;;;;;;;18.77;10.63;;;;;;;2.53;100.00;97457.97;4950611;28;20549;-82
2022/11/23 02:35:56;;;;;;;16.02;10.15;;;;;;;2.57;100.00;97448.28;4936233;28;20066;-81
2022/11/23 02:38:40;;;;;;;13.40;8.52;;;;;;;2.75;100.00;97448.16;4952592;28;20051;-81
2022/11/23 02:41:25;;;;;;;17.50;10.18;;;;;;;2.71;100.00;97447.47;4953931;28;20125;-82
2022/11/23 02:44:30;;;;;;;17.08;10.88;;;;;;;2.50;100.00;97446.97;4967469;28;20160;-82
2022/11/23 02:47:15;;;;;;;15.93;10.40;;;;;;;2.55;100.00;97442.34;4939553;28;20655;-82
2022/11/23 02:50:00;;;;;;;18.08;10.90;;;;;;;2.49;100.00;97440.97;4936837;28;20491;-83
2022/11/23 02:52:44;;;;;;;17.25;11.00;;;;;;;2.32;100.00;97441.91;4950911;28;20039;-81
2022/11/23 02:55:32;;;;;;;17.83;11.05;;;;;;;2.31;100.00;97450.59;4966347;28;20487;-82
2022/11/23 02:58:18;;;;;;;17.45;10.93;;;;;;;2.35;100.00;97441.72;4946389;28;20062;-82
2022/11/23 03:01:04;;;;;;;19.20;11.20;;;;;;;2.42;100.00;97452.56;4947711;28;20058;-80
2022/11/23 03:03:49;;;;;;;16.65;10.05;;;;;;;2.56;100.00;97446.63;4965640;28;20574;-80
2022/11/23 03:06:34;;;;;;;18.23;11.35;;;;;;;2.37;100.00;97452.00;4958551;28;20666;-81
2022/11/23 03:09:18;;;;;;;18.35;10.98;;;;;;;2.31;100.00;97454.00;4940208;28;20502;-81
2022/11/23 03:12:04;;;;;;;15.73;10.15;;;;;;;2.30;100.00;97452.31;4951005;28;20047;-82
2022/11/23 03:14:48;;;;;;;18.92;11.32;;;;;;;2.34;100.00;97445.25;4956340;28;20105;-81
2022/11/23 03:17:35;;;;;;;18.08;10.57;;;;;;;2.41;100.00;97441.41;4976869;28;20027;-82
2022/11/23 03:20:20;;;;;;;18.83;11.23;;;;;;;2.28;100.00;97428.34;4953780;28;20807;-81
2022/11/23 03:23:08;;;;;;;19.38;11.75;;;;;;;2.24;100.00;97434.56;4964851;28;20122;-81
2022/11/23 03:25:57;;;;;;;19.70;11.68;;;;;;;2.14;100.00;97430.84;4939807;28;20038;-81
2022/11/23 03:28:43;;;;;;;21.67;12.05;;;;;;;2.15;100.00;97428.19;4942009;28;20047;-81
2022/11/23 03:31:28;;;;;;;17.98;11.15;;;;;;;2.16;100.00;97416.06;4970479;28;20501;-82
2022/11/23 03:34:13;;;;;;;19.23;11.55;;;;;;;2.19;100.00;97419.34;4964415;28;20145;-81
2022/11/23 03:36:58;;;;;;;19.33;11.48;;;;;;;2.27;100.00;97418.91;4971153;28;20414;-83
2022/11/23 03:39:43;;;;;;;19.20;11.95;;;;;;;2.37;100.00;97421.00;4942233;28;20058;-82
2022/11/23 03:42:40;;;;;;;20.15;11.80;;;;;;;2.31;100.00;97423.00;4969324;28;20042;-82
2022/11/23 03:45:25;;;;;;;18.25;11.38;;;;;;;2.35;100.00;97428.81;4955776;28;20034;-82
2022/11/23 03:48:10;;;;;;;18.63;10.98;;;;;;;2.25;100.00;97425.09;4942126;28;20526;-83
2022/11/23 03:50:55;;;;;;;19.10;11.45;;;;;;;2.28;100.00;97425.75;4949327;28;20043;-84
2022/11/23 03:53:39;;;;;;;18.23;11.55;;;;;;;2.27;100.00;97412.91;4975402;28;20049;-83
2022/11/23 03:56:25;;;;;;;19.60;11.90;;;;;;;2.25;100.00;97414.75;4974325;28;20034;-82
2022/11/23 03:59:10;;;;;;;19.98;11.82;;;;;;;2.21;100.00;97417.50;4982607;28;20049;-81
2022/11/23 04:01:56;;;;;;;18.98;11.40;;;;;;;2.24;100.00;97429.41;4951415;28;20042;-82
2022/11/23 04:04:45;;;;;;;18.27;11.10;;;;;;;2.25;100.00;97428.50;4968499;28;20086;-82
2022/11/23 04:07:50;;;;;;;20.77;11.25;;;;;;;2.17;100.00;97428.91;4974042;28;20089;-80
2022/11/23 04:10:35;;;;;;;16.27;10.40;;;;;;;2.18;100.00;97433.19;4974374;28;20050;-83
2022/11/23 04:13:40;;;;;;;18.45;11.02;;;;;;;2.24;100.00;97437.16;4972531;28;20614;-81
2022/11/23 04:16:26;;;;;;;19.65;11.88;;;;;;;2.17;100.00;97438.44;4936850;28;20066;-82
2022/11/23 04:19:11;;;;;;;18.35;11.30;;;;;;;2.27;100.00;97442.16;4956600;28;20049;-82
2022/11/23 04:21:57;;;;;;;20.08;12.30;;;;;;;2.17;100.00;97443.59;4969073;28;20038;-80
2022/11/23 04:24:43;;;;;;;17.35;11.50;;;;;;;2.21;100.00;97437.34;4959779;28;20043;-81
2022/11/23 04:27:27;;;;;;;16.67;10.48;;;;;;;2.24;100.00;97444.91;4950499;28;20043;-82
2022/11/23 04:30:13;;;;;;;17.20;10.77;;;;;;;2.41;100.00;97437.97;4956178;28;20047;-81
2022/11/23 04:32:57;;;;;;;15.90;9.77;;;;;;;2.34;100.00;97428.00;4952307;28;20559;-83
2022/11/23 04:35:42;;;;;;;18.13;10.27;;;;;;;2.35;100.00;97428.81;4937207;28;20045;-83
2022/11/23 04:38:27;;;;;;;16.27;9.40;;;;;;;2.34;100.00;97433.16;4967268;28;20085;-84
2022/11/23 04:41:12;;;;;;;15.68;9.52;;;;;;;2.45;100.00;97439.47;4968188;28;20110;-83
2022/11/23 04:43:57;;;;;;;18.60;10.13;;;;;;;2.76;100.00;97432.53;4942938;28;20407;-83
2022/11/23 04:46:43;;;;;;;16.67;10.05;;;;;;;2.87;100.00;97434.53;4965731;28;20082;-81
2022/11/23 04:49:31;;;;;;;14.95;9.57;;;;;;;2.75;100.00;97438.66;4981122;28;20047;-84
2022/11/23 04:52:16;;;;;;;15.98;10.18;;;;;;;2.71;100.00;97444.91;4937705;28;20042;-83
2022/11/23 04:55:05;;;;;;;18.10;10.63;;;;;;;2.60;100.00;97448.09;4941449;28;20051;-83
2022/11/23 04:57:54;;;;;;;17.35;10.70;;;;;;;2.57;100.00;97431.03;4949257;28;20226;-83
2022/11/23 05:00:40;;;;;;;17.67;10.55;;;;;;;2.38;100.00;97448.50;4971548;28;20068;-83
2022/11/23 05:03:26;;;;;;;17.17;10.70;;;;;;;2.50;100.00;97431.47;4959400;28;20066;-82
2022/11/23 05:06:11;;;;;;;19.02;10.43;;;;;;;2.50;100.00;97444.41;4957443;28;20453;-83
2022/11/23 05:08:59;;;;;;;19.05;11.35;;;;;;;2.52;100.00;97445.97;4980402;28;20137;-83
2022/11/23 05:12:06;;;;;;;17.42;10.52;;;;;;;2.56;100.00;97450.03;4943029;28;20493;-82
2022/11/23 05:14:55;;;;;;;17.20;10.13;;;;;;;2.72;100.00;97454.34;4953241;28;20189;-83
2022/11/23 05:17:53;;;;;;;17.77;10.98;;;;;;;2.68;100.00;97471.78;4958508;28;20039;-86
2022/11/23 05:20:44;;;;;;;17.65;11.13;;;;;;;2.67;100.00;97462.38;4951316;28;20046;-84
2022/11/23 05:23:30;;;;;;;17.35;10.48;;;;;;;2.60;100.00;97461.03;4967151;28;20121;-81
2022/11/23 05:26:16;;;;;;;17.27;10.43;;;;;;;2.56;100.00;97464.72;4938401;28;20091;-80
2022/11/23 05:29:01;;;;;;;17.98;10.50;;;;;;;2.53;100.00;97470.06;4957984;28;20399;-82
2022/11/23 05:31:53;;;;;;;18.33;11.07;;;;;;;2.34;100.00;97474.50;4965475;28;20042;-81
2022/11/23 05:34:38;;;;;;;19.05;10.63;;;;;;;2.32;100.00;97470.34;4959667;28;20042;-81
2022/11/23 05:37:24;;;;;;;20.02;10.88;;;;;;;2.27;100.00;97462.03;4956836;28;20050;-81
2022/11/23 05:40:15;;;;;;;15.23;9.45;;;;;;;2.42;100.00;97471.50;4966565;28;20039;-82
2022/11/23 05:43:01;;;;;;;21.15;14.15;;;;;;;2.46;100.00;97478.16;4964621;28;20458;-81
2022/11/23 05:45:47;;;;;;;15.98;10.23;;;;;;;2.54;100.00;97469.16;4945058;28;20055;-83
2022/11/23 05:48:33;;;;;;;18.63;10.82;;;;;;;2.47;100.00;97476.41;4934544;28;20105;-82
2022/11/23 05:51:25;;;;;;;18.90;11.18;;;;;;;2.55;100.00;97482.00;4970887;28;20035;-80
2022/11/23 05:54:10;;;;;;;18.58;11.13;;;;;;;2.60;100.00;97489.47;4956494;28;20358;-80
2022/11/23 05:56:58;;;;;;;18.13;11.10;;;;;;;2.54;100.00;97488.09;4963537;28;20183;-80
2022/11/23 05:59:55;;;;;;;18.42;10.75;;;;;;;2.38;100.00;97484.69;4966195;28;20288;-81
2022/11/23 06:02:46;;;;;;;25.48;11.27;;;;;;;2.36;100.00;97483.94;4947455;28;20073;-81
2022/11/23 06:05:31;;;;;;;21.02;11.38;;;;;;;2.34;100.00;97484.00;4954009;28;20470;-81
2022/11/23 06:08:16;;;;;;;18.05;11.23;;;;;;;2.35;100.00;97498.59;4981009;28;20038;-81
2022/11/23 06:11:03;;;;;;;19.17;11.88;;;;;;;2.45;100.00;97502.34;4965719;28;20054;-80
2022/11/23 06:13:48;;;;;;;18.05;10.65;;;;;;;2.45;100.00;97501.50;4961818;28;20053;-82
2022/11/23 06:16:34;;;;;;;16.83;10.35;;;;;;;2.39;100.00;97504.44;4968703;28;20045;-81
2022/11/23 06:19:31;;;;;;;19.20;11.13;;;;;;;2.41;100.00;97500.03;4951540;28;20105;-83
2022/11/23 06:22:16;;;;;;;18.75;10.77;;;;;;;2.44;100.00;97495.53;4951814;28;20474;-82
2022/11/23 06:25:10;;;;;;;17.17;9.93;;;;;;;2.59;100.00;97506.75;4955482;28;20039;-80
2022/11/23 06:28:01;;;;;;;17.85;11.75;;;;;;;2.44;100.00;97492.09;4965886;28;20376;-81
2022/11/23 06:31:04;;;;;;;17.75;11.23;;;;;;;2.38;100.00;97506.22;4953501;28;20054;-81
2022/11/23 06:33:50;;;;;;;;;;;;;;;2.40;100.00;97495.78;4939032;28;20039;-80
2022/11/23 06:36:35;;;;;;;19.17;11.50;;;;;;;2.31;100.00;97518.63;4968463;28;19922;-81
2022/11/23 06:39:20;;;;;;;17.67;10.85;;;;;;;2.33;100.00;97521.13;4963965;28;20047;-81
2022/11/23 06:42:06;;;;;;;17.05;10.43;;;;;;;2.29;100.00;97522.19;4940103;28;20047;-80
2022/11/23 06:44:51;;;;;;;20.40;10.75;;;;;;;2.39;100.00;97517.38;4951432;28;20547;-79
2022/11/23 06:47:36;;;;;;;17.30;10.60;;;;;;;2.39;100.00;97522.53;4951953;28;20063;-80
2022/11/23 06:50:22;;;;;;;18.70;11.30;;;;;;;2.29;100.00;97522.19;4957049;28;20065;-80
2022/11/23 06:53:11;;;;;;;20.05;10.82;;;;;;;2.31;100.00;97530.72;4966796;28;20043;-79
2022/11/23 06:56:01;;;;;;;19.55;10.77;;;;;;;2.31;100.00;97534.16;4947334;28;20039;-80
2022/11/23 06:58:47;;;;;;;19.10;11.60;;;;;;;2.34;100.00;97538.31;4965420;28;20043;-80
2022/11/23 07:01:38;;;;;;;21.20;11.48;;;;;;;2.40;100.00;97534.56;4937981;28;20085;-80
2022/11/23 07:04:26;;;;;;;20.27;11.75;;;;;;;2.38;100.00;97544.16;4955990;28;20042;-80
2022/11/23 07:07:11;;;;;;;20.90;11.50;;;;;;;2.39;100.00;97538.03;4952910;28;20031;-80
2022/11/23 07:10:06;;;;;;;20.67;11.07;;;;;;;2.33;100.00;97552.97;4965375;28;20069;-81
2022/11/23 07:13:05;;;;;;;19.35;11.27;;;;;;;2.35;100.00;97542.53;4951412;28;20038;-82
2022/11/23 07:15:50;;;;;;;21.33;11.77;;;;;;;2.29;100.00;97543.72;4948491;28;20498;-82
2022/11/23 07:18:35;;;;;;;21.15;12.20;;;;;;;2.31;100.00;97547.06;4949413;28;20047;-82
2022/11/23 07:21:20;;;;;;;19.15;11.38;;;;;;;2.39;100.00;97538.03;4956109;28;20063;-81
2022/11/23 07:24:05;;;;;;;20.27;11.98;;;;;;;2.45;100.00;97541.13;4967309;28;20045;-80
2022/11/23 07:26:50;;;;;;;20.15;11.40;;;;;;;2.51;100.00;97546.88;4969699;28;20041;-80
2022/11/23 07:29:34;;;;;;;19.60;10.70;;;;;;;2.37;100.00;97542.50;4982599;28;20046;-81
2022/11/23 07:32:19;;;;;;;19.13;11.35;;;;;;;2.38;100.00;97538.97;4968562;28;20067;-81
2022/11/23 07:35:05;;;;;;;17.83;10.60;;;;;;;2.57;100.00;97547.38;4951998;28;20066;-84
2022/11/23 07:37:53;;;;;;;17.27;10.70;;;;;;;2.61;100.00;97544.63;4966499;28;20047;-79
2022/11/23 07:40:38;;;;;;;17.75;11.30;;;;;;;2.55;100.00;97546.63;4937741;28;20042;-80
2022/11/23 07:43:25;;;;;;;18.23;10.82;;;;;;;2.59;100.00;97545.53;4965904;28;20471;-81
2022/11/23 07:46:12;;;;;;;18.42;10.63;;;;;;;2.64;100.00;97536.69;4954425;28;20034;-80
2022/11/23 07:49:00;;;;;;;18.45;11.20;;;;;;;2.66;100.00;97540.84;4939338;28;20503;-81
2022/11/23 07:51:47;;;;;;;19.17;10.73;;;;;;;2.70;100.00;97534.63;4953660;28;20049;-83
2022/11/23 07:54:32;;;;;;;18.45;11.43;;;;;;;2.59;100.00;97547.31;4936805;28;21150;-82
2022/11/23 07:57:17;;;;;;;20.00;10.85;;;;;;;2.62;100.00;97536.78;4955497;28;20045;-80
2022/11/23 08:00:04;;;;;;;18.88;10.27;;;;;;;2.81;100.00;97544.34;4969494;28;20099;-81
2022/11/23 08:02:59;;;;;;;17.58;10.57;;;;;;;2.97;100.00;97547.81;4951384;28;20081;-81
2022/11/23 08:05:44;;;;;;;14.57;8.95;;;;;;;3.02;100.00;97551.81;4949977;28;20798;-81
2022/11/23 08:08:29;;;;;;;17.08;11.45;;;;;;;2.97;100.00;97540.06;4978796;28;20042;-81
2022/11/23 08:11:16;;;;;;;20.42;11.40;;;;;;;2.88;100.00;97542.25;4964922;28;20153;-83
2022/11/23 08:14:00;;;;;;;17.33;10.65;;;;;;;2.99;100.00;97543.41;4928816;28;20059;-81
2022/11/23 08:16:48;;;;;;;19.55;11.70;;;;;;;2.91;100.00;97544.66;4954304;28;20042;-82
2022/11/23 08:19:32;;;;;;;19.83;11.40;;;;;;;2.89;100.00;97543.91;4954772;28;20113;-82
2022/11/23 08:22:17;;;;;;;16.65;10.85;;;;;;;2.82;100.00;97548.59;4982115;28;20062;-81
2022/11/23 08:25:02;;;;;;;19.73;11.10;;;;;;;2.80;100.00;97539.25;4968391;28;20039;-82
2022/11/23 08:27:47;;;;;;;19.85;11.73;;;;;;;2.78;100.00;97533.34;4958500;28;20058;-83
2022/11/23 08:30:33;;;;;;;23.38;12.30;;;;;;;2.57;100.00;97544.81;4955102;28;20042;-80
2022/11/23 08:33:17;;;;;;;18.67;10.27;;;;;;;2.66;100.00;97534.88;4955000;28;20046;-80
2022/11/23 08:36:07;;;;;;;18.67;10.98;;;;;;;2.67;100.00;97539.13;4944883;28;20046;-80
2022/11/23 08:38:55;;;;;;;19.90;11.18;;;;;;;2.71;100.00;97535.41;4954282;28;20054;-81
2022/11/23 08:41:57;;;;;;;21.85;11.95;;;;;;;2.66;100.00;97534.88;4953471;28;20054;-83
2022/11/23 08:44:45;;;;;;;19.80;10.63;;;;;;;2.65;100.00;97533.19;4977188;28;20058;-83
2022/11/23 08:47:32;;;;;;;19.45;11.75;;;;;;;2.72;100.00;97537.13;4971495;28;20054;-80
2022/11/23 08:50:20;;;;;;;20.60;11.43;;;;;;;2.73;100.00;97541.34;4955382;28;20479;-80
2022/11/23 08:53:32;;;;;;;20.60;12.40;;;;;;;2.68;100.00;97551.13;4967804;28;20066;-82
2022/11/23 08:56:23;;;;;;;19.70;12.00;;;;;;;2.74;100.00;97544.78;4968419;28;20050;-81
2022/11/23 08:59:08;;;;;;;20.58;11.73;;;;;;;2.73;100.00;97546.53;4964799;28;20050;-81
2022/11/23 09:01:52;;;;;;;19.80;11.05;;;;;;;2.88;100.00;97538.81;4956065;28;20150;-81
2022/11/23 09:04:43;;;;;;;20.05;12.30;;;;;;;2.93;100.00;97545.41;4955745;28;20145;-81
2022/11/23 09:07:38;;;;;;;20.35;12.27;;;;;;;2.87;100.00;97539.75;4959422;28;20143;-81
2022/11/23 09:10:23;;;;;;;23.75;12.35;;;;;;;2.84;100.00;97538.16;4967950;28;20205;-80
2022/11/23 09:13:14;;;;;;;20.17;12.38;;;;;;;2.91;100.00;97547.25;4968974;28;20047;-82
2022/11/23 09:16:05;;;;;;;22.70;12.23;;;;;;;3.02;100.00;97533.69;4943864;28;20149;-82
2022/11/23 09:18:55;;;;;;;18.67;11.48;;;;;;;3.03;100.00;97537.13;4954044;28;20039;-81
2022/11/23 09:21:42;;;;;;;25.17;12.63;;;;;;;3.14;100.00;97534.75;4965374;28;20067;-82
2022/11/23 09:24:27;;;;;;;20.15;12.18;;;;;;;3.14;100.00;97533.91;4940183;28;20376;-81
2022/11/23 09:27:12;;;;;;;21.73;12.77;;;;;;;3.14;100.00;97533.91;4980209;28;20034;-82
2022/11/23 09:29:57;;;;;;;21.00;12.60;;;;;;;3.02;100.00;97523.34;4954553;28;20122;-82
2022/11/23 09:32:47;;;;;;;22.80;12.25;;;;;;;3.06;100.00;97524.84;4954198;28;20053;-80
2022/11/23 09:35:31;;;;;;;22.70;13.15;;;;;;;3.03;100.00;97535.38;4935130;28;20078;-81
2022/11/23 09:38:17;;;;;;;19.92;12.02;;;;;;;3.10;100.00;97528.06;4954309;28;20039;-82
2022/11/23 09:41:39;;;;;;;21.65;12.48;;;;;;;3.22;100.00;97531.72;4968411;28;20059;-81
2022/11/23 09:44:44;;;;;;;20.73;11.68;;;;;;;3.41;100.00;97528.06;4970093;28;20062;-82
2022/11/23 09:47:44;;;;;;;20.60;12.02;;;;;;;3.29;100.00;97529.59;4941176;28;20065;-81
2022/11/23 09:50:51;;;;;;;19.02;11.43;;;;;;;3.20;100.00;97518.84;4940318;28;20065;-80
2022/11/23 09:54:13;;;;;;;21.48;11.98;;;;;;;3.29;100.00;97520.09;4967222;28;20126;-82
2022/11/23 09:57:06;;;;;;;21.65;12.73;;;;;;;3.15;100.00;97520.88;4872435;29;20711;-81
2022/11/23 10:00:33;;;;;;;22.23;13.03;;;;;;;3.31;100.00;97515.63;4854881;29;20457;-80
2022/11/23 10:03:18;;;;;;;22.77;12.82;;;;;;;3.33;100.00;97512.94;4839797;29;20060;-80
2022/11/23 10:06:20;;;;;;;23.13;13.13;;;;;;;3.30;100.00;97513.13;4892820;29;20056;-81
2022/11/23 10:09:51;;;;;;;22.80;12.52;;;;;;;3.28;100.00;97510.63;4894395;29;20052;-81
2022/11/23 10:12:45;;;;;;;24.58;13.32;;;;;;;3.24;100.00;97511.75;4897255;29;20060;-81
2022/11/23 10:15:53;;;;;;;23.17;14.25;;;;;;;3.20;100.00;97510.25;4877953;29;20045;-82
2022/11/23 10:19:03;;;;;;;22.52;13.43;;;;;;;3.22;100.00;97513.59;4882561;29;20083;-79
2022/11/23 10:22:01;;;;;;;23.27;13.50;;;;;;;3.26;100.00;97503.91;4883057;29;20159;-80
2022/11/23 10:25:15;;;;;;;22.85;13.07;;;;;;;3.26;100.00;97501.31;4882198;29;20064;-81
2022/11/23 10:28:10;;;;;;;21.40;12.25;;;;;;;3.20;100.00;97490.38;4885138;29;20059;-79
2022/11/23 10:31:15;;;;;;;21.58;11.77;;;;;;;3.25;100.00;97489.31;4877547;29;20111;-83
2022/11/23 10:34:09;;;;;;;25.80;13.15;;;;;;;3.28;100.00;97494.28;4965967;28;20062;-81
2022/11/23 10:36:55;;;;;;;21.45;11.98;;;;;;;3.45;100.00;97494.13;4964874;28;20392;-81
2022/11/23 10:39:40;;;;;;;19.67;12.45;;;;;;;3.37;100.00;97493.75;4953679;28;20058;-81
2022/11/23 10:42:36;;;;;;;22.80;12.65;;;;;;;3.53;100.00;97496.25;4954565;28;20569;-82
2022/11/23 10:45:23;;;;;;;21.92;12.98;;;;;;;3.50;100.00;97500.78;4952286;28;20527;-83
2022/11/23 10:48:08;;;;;;;21.60;12.55;;;;;;;3.51;100.00;97500.69;4938329;28;20058;-80
2022/11/23 10:51:14;;;;;;;21.27;12.15;;;;;;;3.62;100.00;97506.97;4952666;28;20042;-80
2022/11/23 10:54:01;;;;;;;19.60;11.27;;;;;;;3.54;100.00;97503.09;4936178;28;20096;-80
2022/11/23 10:56:48;;;;;;;20.65;11.88;;;;;;;3.55;100.00;97496.16;4954518;28;20129;-81
2022/11/23 10:59:36;;;;;;;18.83;10.68;;;;;;;3.55;100.00;97499.59;4940985;28;20508;-83
2022/11/23 11:02:21;;;;;;;18.58;10.77;;;;;;;3.51;100.00;97492.91;4978956;28;20039;-80
2022/11/23 11:05:37;;;;;;;22.35;11.95;;;;;;;3.64;100.00;97502.56;4951842;28;20043;-83
2022/11/23 11:08:26;;;;;;;19.75;11.45;;;;;;;3.58;100.00;97501.16;4929448;29;20071;-82
2022/11/23 11:11:20;;;;;;;19.45;11.38;;;;;;;3.57;100.00;97495.13;4925207;29;20403;-81
2022/11/23 11:14:22;;;;;;;19.08;10.88;;;;;;;3.65;100.00;97489.50;4918153;29;20044;-81
2022/11/23 11:17:27;;;;;;;19.10;10.82;;;;;;;3.81;100.00;97504.09;4915061;29;20054;-81
2022/11/23 11:20:30;;;;;;;18.23;9.95;;;;;;;3.88;100.00;97505.41;4931560;29;20083;-81
2022/11/23 11:23:21;;;;;;;16.85;9.85;;;;;;;3.90;100.00;97500.13;4913501;29;20048;-82
2022/11/23 11:26:15;;;;;;;;;;;;;;;3.80;100.00;97503.25;4917648;29;20582;-81
2022/11/23 11:29:05;;;;;;;15.95;9.32;;;;;;;3.94;100.00;97502.44;4908677;29;19923;-82
2022/11/23 11:31:58;;;;;;;16.80;9.48;;;;;;;4.04;100.00;97502.69;4933505;29;20075;-82
2022/11/23 11:34:54;;;;;;;17.92;9.93;;;;;;;4.09;100.00;97504.16;4915067;29;20046;-82
2022/11/23 11:37:56;;;;;;;17.38;9.68;;;;;;;4.03;100.00;97500.22;4908313;29;20040;-82
2022/11/23 11:40:46;;;;;;;13.02;8.60;;;;;;;3.90;100.00;97507.91;4926291;29;20559;-82
2022/11/23 11:43:36;;;;;;;15.73;8.97;;;;;;;3.92;100.00;97496.50;4902563;29;20055;-81
2022/11/23 11:46:24;;;;;;;13.57;7.50;;;;;;;3.87;100.00;97505.50;4951278;28;20478;-82
2022/11/23 11:49:19;;;;;;;13.15;7.40;;;;;;;3.96;100.00;97506.69;4971407;28;20072;-83
2022/11/23 11:52:09;;;;;;;12.10;7.25;;;;;;;4.08;100.00;97498.13;4970495;28;20055;-82
2022/11/23 11:55:12;;;;;;;12.13;7.07;;;;;;;4.11;100.00;97500.56;4966542;28;20083;-81
2022/11/23 11:58:09;;;;;;;13.63;7.60;;;;;;;4.01;100.00;97502.06;4951694;28;20050;-81
2022/11/23 12:01:39;;;;;;;12.93;6.93;;;;;;;4.01;100.00;97497.72;4968041;28;20066;-81
2022/11/23 12:04:47;;;;;;;11.98;6.97;;;;;;;4.15;100.00;97506.38;4956491;28;20058;-80
2022/11/23 12:08:00;;;;;;;12.60;7.07;;;;;;;4.14;100.00;97500.38;4950040;28;20097;-80
2022/11/23 12:11:05;;;;;;;23.77;12.65;;;;;;;4.04;100.00;97499.25;4977633;28;20486;-81
2022/11/23 12:13:59;;;;;;;11.65;7.00;;;;;;;4.12;100.00;97501.38;4953230;28;20035;-80
2022/11/23 12:16:57;;;;;;;12.25;7.30;;;;;;;4.15;100.00;97503.78;4939797;28;20058;-81
2022/11/23 12:20:14;;;;;;;12.13;6.82;;;;;;;4.19;100.00;97505.25;4941808;28;20505;-81
2022/11/23 12:23:20;;;;;;;10.02;6.13;;;;;;;4.12;100.00;97501.38;4955904;28;20199;-81
2022/11/23 12:26:14;;;;;;;11.55;6.00;;;;;;;4.16;100.00;97501.09;4956498;28;20129;-80
2022/11/23 12:29:45;;;;;;;12.65;6.90;;;;;;;4.25;100.00;97502.28;4954258;28;20074;-84
2022/11/23 12:32:56;;;;;;;11.27;5.70;;;;;;;4.36;100.00;97500.78;4907489;29;20511;-80
2022/11/23 12:36:06;;;;;;;12.38;6.60;;;;;;;4.30;100.00;97500.25;4917274;28;20909;-82
2022/11/23 12:39:15;;;;;;;9.70;5.40;;;;;;;4.44;100.00;97504.53;4912152;29;20125;-79
2022/11/23 12:42:15;;;;;;;9.43;6.13;;;;;;;4.52;100.00;97509.22;4896316;29;20498;-80
2022/11/23 12:45:40;;;;;;;11.35;5.80;;;;;;;4.34;100.00;97503.44;4908613;29;20054;-80
2022/11/23 12:48:25;;;;;;;9.88;5.75;;;;;;;4.53;100.00;97503.13;4909149;29;20093;-80
2022/11/23 12:51:44;;;;;;;9.82;5.63;;;;;;;4.37;100.00;97505.88;4904051;29;20050;-80
2022/11/23 12:54:53;;;;;;;9.80;5.53;;;;;;;4.43;100.00;97502.03;4888462;29;20063;-80
2022/11/23 12:58:07;;;;;;;11.05;5.22;;;;;;;4.55;100.00;97505.63;4901837;29;20516;-81
2022/11/23 13:01:15;;;;;;;11.18;6.10;;;;;;;4.67;100.00;97499.63;4936008;28;20126;-82
2022/11/23 13:04:27;;;;;;;8.30;5.28;;;;;;;4.60;100.00;97500.13;4904183;29;20461;-81
2022/11/23 13:07:39;;;;;;;9.30;5.47;;;;;;;4.70;100.00;97497.78;4905746;28;20082;-80
2022/11/23 13:10:37;;;;;;;11.95;6.30;;;;;;;4.62;100.00;97498.28;4939332;28;20066;-79
2022/11/23 13:14:01;;;;;;;10.25;5.90;;;;;;;4.70;100.00;97487.41;4954687;28;20050;-81